PWSweather.com
Personal Weather Stations
Station Observations
KILMORRI1
Goose Lake, Morris, IL 60450

Goose LakeMorris, IL 60450

Lat: 41.34, Lon: -88.3

Elevation: 523

Station Type:

www.gooselakeweather.com

High Low Average
Temperature 81.3°F27.4°F 44.5°F6.9°F 60.8°F16.0°F
Dew Point 59.6°F15.3°F 36.2°F2.3°F 48.4°F9.1°F
Winds 18.4 mph SW29.6 mph SW Calm Calm 8.5 mph 13.7 mph
Wind Gusts 28.8 mph46.3 mph -- 13.0 mph20.9 mph
Humidity 93% 37% 67%
Pressure 30.02 in1016.60 in 29.87 in1011.50 in -
Precipitation 0.03 in0.80 in - -
Hour Temp Dew Point Humidity Winds Wind Gusts Pressure Precip Precip Rate Daily Precip Total
12:00 AM 47.4°F8.6°C 36.2°F2.3°C 65% 6.9 mph SSW11.1 kmh SSW 10.4 mph16.7 kmh 29.99 in1015.6 mb - 0.00 in0.0 mm 0.00 in0.0 mm
12:10 AM 47.0°F8.3°C 36.2°F2.3°C 66% 6.9 mph SSW11.1 kmh SSW 10.4 mph16.7 kmh 29.99 in1015.6 mb - 0.00 in0.0 mm 0.00 in0.0 mm
12:20 AM 46.8°F8.2°C 36.4°F2.4°C 67% 5.8 mph S9.3 kmh S 9.2 mph14.8 kmh 29.99 in1015.6 mb - 0.00 in0.0 mm 0.00 in0.0 mm
12:30 AM 46.7°F8.2°C 36.7°F2.6°C 68% 4.6 mph SSW7.4 kmh SSW 6.9 mph11.1 kmh 30.00 in1015.9 mb - 0.00 in0.0 mm 0.00 in0.0 mm
12:40 AM 46.6°F8.1°C 36.6°F2.6°C 68% 4.6 mph SW7.4 kmh SW 4.6 mph7.4 kmh 29.99 in1015.6 mb - 0.00 in0.0 mm 0.00 in0.0 mm
12:50 AM 46.5°F8.1°C 36.8°F2.7°C 69% 4.6 mph S7.4 kmh S 5.8 mph9.3 kmh 29.99 in1015.6 mb - 0.00 in0.0 mm 0.00 in0.0 mm
01:00 AM 46.2°F7.9°C 37.0°F2.8°C 70% 3.5 mph S5.6 kmh S 5.8 mph9.3 kmh 29.98 in1015.2 mb - 0.00 in0.0 mm 0.00 in0.0 mm
01:10 AM 46.1°F7.8°C 37.2°F2.9°C 71% 6.9 mph SSW11.1 kmh SSW 11.5 mph18.5 kmh 29.98 in1015.2 mb - 0.00 in0.0 mm 0.00 in0.0 mm
01:20 AM 46.5°F8.1°C 37.6°F3.1°C 71% 8.1 mph S13.0 kmh S 10.4 mph16.7 kmh 29.98 in1015.2 mb - 0.00 in0.0 mm 0.00 in0.0 mm
01:30 AM 46.7°F8.2°C 38.1°F3.4°C 72% 5.8 mph S9.3 kmh S 6.9 mph11.1 kmh 29.98 in1015.2 mb - 0.00 in0.0 mm 0.00 in0.0 mm
01:40 AM 46.6°F8.1°C 38.1°F3.4°C 72% 5.8 mph S9.3 kmh S 5.8 mph9.3 kmh 29.97 in1014.9 mb - 0.00 in0.0 mm 0.00 in0.0 mm
01:50 AM 46.6°F8.1°C 38.1°F3.4°C 72% 6.9 mph S11.1 kmh S 10.4 mph16.7 kmh 29.96 in1014.6 mb - 0.00 in0.0 mm 0.00 in0.0 mm
02:00 AM 46.5°F8.1°C 38.3°F3.5°C 73% 8.1 mph SSW13.0 kmh SSW 10.4 mph16.7 kmh 29.96 in1014.6 mb - 0.00 in0.0 mm 0.00 in0.0 mm
02:10 AM 46.7°F8.2°C 38.8°F3.8°C 74% 6.9 mph SSW11.1 kmh SSW 11.5 mph18.5 kmh 29.96 in1014.6 mb - 0.00 in0.0 mm 0.00 in0.0 mm
02:20 AM 46.9°F8.3°C 39.1°F3.9°C 74% 6.9 mph S11.1 kmh S 10.4 mph16.7 kmh 29.96 in1014.6 mb - 0.00 in0.0 mm 0.00 in0.0 mm
02:30 AM 47.1°F8.4°C 39.2°F4.0°C 74% 5.8 mph S9.3 kmh S 8.1 mph13.0 kmh 29.95 in1014.2 mb - 0.00 in0.0 mm 0.00 in0.0 mm
02:40 AM 46.9°F8.3°C 39.1°F3.9°C 74% 4.6 mph SSW7.4 kmh SSW 8.1 mph13.0 kmh 29.95 in1014.2 mb - 0.00 in0.0 mm 0.00 in0.0 mm
02:50 AM 46.8°F8.2°C 39.6°F4.2°C 76% 4.6 mph S7.4 kmh S 11.5 mph18.5 kmh 29.95 in1014.2 mb - 0.00 in0.0 mm 0.00 in0.0 mm
03:00 AM 47.0°F8.3°C 39.8°F4.3°C 76% 3.5 mph S5.6 kmh S 4.6 mph7.4 kmh 29.95 in1014.2 mb - 0.00 in0.0 mm 0.00 in0.0 mm
03:10 AM 47.1°F8.4°C 40.0°F4.4°C 76% Calm Calm -- 29.96 in1014.6 mb - 0.00 in0.0 mm 0.00 in0.0 mm
03:20 AM 47.1°F8.4°C 39.9°F4.4°C 76% Calm Calm -- 29.96 in1014.6 mb - 0.00 in0.0 mm 0.00 in0.0 mm
03:30 AM 46.7°F8.2°C 39.9°F4.4°C 77% Calm Calm -- 29.96 in1014.6 mb - 0.00 in0.0 mm 0.00 in0.0 mm
03:40 AM 46.2°F7.9°C 39.7°F4.3°C 78% Calm Calm 2.3 mph3.7 kmh 29.95 in1014.2 mb - 0.00 in0.0 mm 0.00 in0.0 mm
03:50 AM 45.7°F7.6°C 39.6°F4.2°C 79% 2.3 mph SSE3.7 kmh SSE 3.5 mph5.6 kmh 29.95 in1014.2 mb - 0.00 in0.0 mm 0.00 in0.0 mm
04:00 AM 45.6°F7.6°C 39.8°F4.3°C 80% 2.3 mph S3.7 kmh S 4.6 mph7.4 kmh 29.94 in1013.9 mb - 0.00 in0.0 mm 0.00 in0.0 mm
04:10 AM 46.2°F7.9°C 40.1°F4.5°C 79% 2.3 mph S3.7 kmh S 5.8 mph9.3 kmh 29.93 in1013.5 mb - 0.00 in0.0 mm 0.00 in0.0 mm
04:20 AM 46.7°F8.2°C 40.5°F4.7°C 79% 3.5 mph S5.6 kmh S 5.8 mph9.3 kmh 29.93 in1013.5 mb - 0.00 in0.0 mm 0.00 in0.0 mm
04:30 AM 47.1°F8.4°C 40.6°F4.8°C 78% 3.5 mph SSW5.6 kmh SSW 10.4 mph16.7 kmh 29.93 in1013.5 mb - 0.00 in0.0 mm 0.00 in0.0 mm
04:40 AM 47.4°F8.6°C 40.9°F4.9°C 78% 3.5 mph SSW5.6 kmh SSW 3.5 mph5.6 kmh 29.93 in1013.5 mb - 0.00 in0.0 mm 0.00 in0.0 mm
04:50 AM 47.5°F8.6°C 41.0°F5.0°C 78% 5.8 mph S9.3 kmh S 6.9 mph11.1 kmh 29.93 in1013.5 mb - 0.00 in0.0 mm 0.00 in0.0 mm
05:00 AM 47.8°F8.8°C 41.3°F5.2°C 78% 5.8 mph S9.3 kmh S 11.5 mph18.5 kmh 29.93 in1013.5 mb - 0.00 in0.0 mm 0.00 in0.0 mm
05:10 AM 48.1°F8.9°C 41.9°F5.5°C 79% 5.8 mph SSW9.3 kmh SSW 6.9 mph11.1 kmh 29.93 in1013.5 mb - 0.00 in0.0 mm 0.00 in0.0 mm
05:20 AM 48.5°F9.2°C 42.0°F5.6°C 78% 6.9 mph SSW11.1 kmh SSW 12.7 mph20.4 kmh 29.93 in1013.5 mb - 0.00 in0.0 mm 0.00 in0.0 mm
05:30 AM 48.8°F9.3°C 42.6°F5.9°C 79% 6.9 mph SSW11.1 kmh SSW 11.5 mph18.5 kmh 29.93 in1013.5 mb - 0.00 in0.0 mm 0.00 in0.0 mm
05:40 AM 49.1°F9.5°C 42.5°F5.8°C 78% 6.9 mph SSW11.1 kmh SSW 8.1 mph13.0 kmh 29.93 in1013.5 mb - 0.00 in0.0 mm 0.00 in0.0 mm
05:50 AM 49.3°F9.6°C 42.7°F5.9°C 78% 8.1 mph SSW13.0 kmh SSW 16.1 mph25.9 kmh 29.93 in1013.5 mb - 0.00 in0.0 mm 0.00 in0.0 mm
06:00 AM 49.7°F9.8°C 43.4°F6.3°C 79% 9.2 mph SSW14.8 kmh SSW 11.5 mph18.5 kmh 29.93 in1013.5 mb - 0.00 in0.0 mm 0.00 in0.0 mm
06:10 AM 50.2°F10.1°C 44.0°F6.7°C 79% 8.1 mph SSW13.0 kmh SSW 11.5 mph18.5 kmh 29.94 in1013.9 mb - 0.00 in0.0 mm 0.00 in0.0 mm
06:20 AM 50.7°F10.4°C 44.4°F6.9°C 79% 10.4 mph SSW16.7 kmh SSW 11.5 mph18.5 kmh 29.94 in1013.9 mb - 0.00 in0.0 mm 0.00 in0.0 mm
06:30 AM 50.8°F10.4°C 44.5°F6.9°C 79% 9.2 mph SSW14.8 kmh SSW 11.5 mph18.5 kmh 29.94 in1013.9 mb - 0.00 in0.0 mm 0.00 in0.0 mm
06:40 AM 50.9°F10.5°C 44.6°F7.0°C 79% 6.9 mph SSW11.1 kmh SSW 13.8 mph22.2 kmh 29.94 in1013.9 mb - 0.00 in0.0 mm 0.00 in0.0 mm
06:50 AM 50.8°F10.4°C 44.9°F7.2°C 80% 6.9 mph SSW11.1 kmh SSW 8.1 mph13.0 kmh 29.94 in1013.9 mb - 0.00 in0.0 mm 0.00 in0.0 mm
07:00 AM 50.9°F10.5°C 45.3°F7.4°C 81% 8.1 mph SSW13.0 kmh SSW 15.0 mph24.1 kmh 29.94 in1013.9 mb - 0.00 in0.0 mm 0.00 in0.0 mm
07:10 AM 51.2°F10.7°C 45.6°F7.6°C 81% 10.4 mph SSW16.7 kmh SSW 17.3 mph27.8 kmh 29.94 in1013.9 mb - 0.00 in0.0 mm 0.00 in0.0 mm
07:20 AM 51.7°F10.9°C 46.1°F7.8°C 81% 8.1 mph SSW13.0 kmh SSW 12.7 mph20.4 kmh 29.94 in1013.9 mb - 0.00 in0.0 mm 0.00 in0.0 mm
07:30 AM 52.2°F11.2°C 46.5°F8.1°C 81% 11.5 mph SSW18.5 kmh SSW 18.4 mph29.6 kmh 29.94 in1013.9 mb - 0.00 in0.0 mm 0.00 in0.0 mm
07:40 AM 52.7°F11.5°C 46.7°F8.2°C 80% 9.2 mph SSW14.8 kmh SSW 11.5 mph18.5 kmh 29.94 in1013.9 mb - 0.00 in0.0 mm 0.00 in0.0 mm
07:50 AM 53.0°F11.7°C 46.7°F8.2°C 79% 8.1 mph SSW13.0 kmh SSW 18.4 mph29.6 kmh 29.94 in1013.9 mb - 0.00 in0.0 mm 0.00 in0.0 mm
08:00 AM 53.1°F11.7°C 46.8°F8.2°C 79% 6.9 mph SSW11.1 kmh SSW 11.5 mph18.5 kmh 29.94 in1013.9 mb - 0.00 in0.0 mm 0.00 in0.0 mm
08:10 AM 53.4°F11.9°C 47.0°F8.3°C 79% 9.2 mph SSW14.8 kmh SSW 13.8 mph22.2 kmh 29.94 in1013.9 mb - 0.00 in0.0 mm 0.00 in0.0 mm
08:20 AM 54.3°F12.4°C 47.6°F8.7°C 78% 10.4 mph SSW16.7 kmh SSW 18.4 mph29.6 kmh 29.94 in1013.9 mb - 0.00 in0.0 mm 0.00 in0.0 mm
08:30 AM 55.6°F13.1°C 48.5°F9.2°C 77% 11.5 mph SSW18.5 kmh SSW 16.1 mph25.9 kmh 29.94 in1013.9 mb - 0.00 in0.0 mm 0.00 in0.0 mm
08:40 AM 57.2°F14.0°C 49.4°F9.7°C 75% 9.2 mph SW14.8 kmh SW 16.1 mph25.9 kmh 29.94 in1013.9 mb - 0.00 in0.0 mm 0.00 in0.0 mm
08:50 AM 58.7°F14.8°C 50.0°F10.0°C 73% 11.5 mph SSW18.5 kmh SSW 18.4 mph29.6 kmh 29.94 in1013.9 mb - 0.00 in0.0 mm 0.00 in0.0 mm
09:00 AM 59.9°F15.5°C 50.9°F10.5°C 72% 9.2 mph SSW14.8 kmh SSW 17.3 mph27.8 kmh 29.94 in1013.9 mb - 0.00 in0.0 mm 0.00 in0.0 mm
09:10 AM 61.8°F16.6°C 51.9°F11.1°C 70% 9.2 mph SW14.8 kmh SW 19.6 mph31.5 kmh 29.94 in1013.9 mb - 0.00 in0.0 mm 0.00 in0.0 mm
09:20 AM 63.1°F17.3°C 52.3°F11.3°C 68% 13.8 mph SW22.2 kmh SW 23.0 mph37.0 kmh 29.93 in1013.5 mb - 0.00 in0.0 mm 0.00 in0.0 mm
09:30 AM 64.0°F17.8°C 52.4°F11.3°C 66% 13.8 mph SSW22.2 kmh SSW 20.7 mph33.3 kmh 29.93 in1013.5 mb - 0.00 in0.0 mm 0.00 in0.0 mm
09:40 AM 64.7°F18.2°C 53.5°F11.9°C 67% 9.2 mph SSW14.8 kmh SSW 18.4 mph29.6 kmh 29.93 in1013.5 mb - 0.00 in0.0 mm 0.00 in0.0 mm
09:50 AM 65.0°F18.3°C 52.5°F11.4°C 64% 10.4 mph SSW16.7 kmh SSW 17.3 mph27.8 kmh 29.93 in1013.5 mb - 0.00 in0.0 mm 0.00 in0.0 mm
10:00 AM 65.4°F18.6°C 52.9°F11.6°C 64% 13.8 mph SSW22.2 kmh SSW 24.2 mph38.9 kmh 29.94 in1013.9 mb - 0.00 in0.0 mm 0.00 in0.0 mm
10:10 AM 66.3°F19.1°C 53.3°F11.8°C 63% 13.8 mph SSW22.2 kmh SSW 17.3 mph27.8 kmh 29.93 in1013.5 mb - 0.00 in0.0 mm 0.00 in0.0 mm
10:20 AM 66.7°F19.3°C 53.3°F11.8°C 62% 12.7 mph SSW20.4 kmh SSW 19.6 mph31.5 kmh 29.93 in1013.5 mb - 0.00 in0.0 mm 0.00 in0.0 mm
10:30 AM 68.1°F20.1°C 54.1°F12.3°C 61% 10.4 mph SSW16.7 kmh SSW 16.1 mph25.9 kmh 29.94 in1013.9 mb - 0.00 in0.0 mm 0.00 in0.0 mm
10:40 AM 70.1°F21.2°C 54.6°F12.6°C 58% 12.7 mph SW20.4 kmh SW 20.7 mph33.3 kmh 29.93 in1013.5 mb - 0.00 in0.0 mm 0.00 in0.0 mm
10:50 AM 71.4°F21.9°C 54.4°F12.4°C 55% 11.5 mph SSW18.5 kmh SSW 19.6 mph31.5 kmh 29.93 in1013.5 mb - 0.00 in0.0 mm 0.00 in0.0 mm
11:00 AM 72.3°F22.4°C 54.8°F12.7°C 54% 15.0 mph SW24.1 kmh SW 18.4 mph29.6 kmh 29.93 in1013.5 mb - 0.00 in0.0 mm 0.00 in0.0 mm
11:10 AM 73.7°F23.2°C 53.9°F12.2°C 50% 10.4 mph SW16.7 kmh SW 12.7 mph20.4 kmh 29.93 in1013.5 mb - 0.00 in0.0 mm 0.00 in0.0 mm
11:20 AM 73.5°F23.1°C 54.3°F12.4°C 51% 13.8 mph SW22.2 kmh SW 19.6 mph31.5 kmh 29.93 in1013.5 mb - 0.00 in0.0 mm 0.00 in0.0 mm
11:30 AM 74.2°F23.4°C 53.8°F12.1°C 49% 16.1 mph SW25.9 kmh SW 16.1 mph25.9 kmh 29.92 in1013.2 mb - 0.00 in0.0 mm 0.00 in0.0 mm
11:40 AM 75.3°F24.1°C 55.9°F13.3°C 51% 13.8 mph SW22.2 kmh SW 20.7 mph33.3 kmh 29.92 in1013.2 mb - 0.00 in0.0 mm 0.00 in0.0 mm
11:50 AM 76.5°F24.7°C 51.1°F10.6°C 41% 11.5 mph SW18.5 kmh SW 17.3 mph27.8 kmh 29.92 in1013.2 mb - 0.00 in0.0 mm 0.00 in0.0 mm
12:00 PM 77.6°F25.3°C 53.4°F11.9°C 43% 13.8 mph SW22.2 kmh SW 25.3 mph40.7 kmh 29.91 in1012.9 mb - 0.00 in0.0 mm 0.00 in0.0 mm
12:10 PM 77.8°F25.4°C 52.2°F11.2°C 41% 12.7 mph SW20.4 kmh SW 27.6 mph44.4 kmh 29.91 in1012.9 mb - 0.00 in0.0 mm 0.00 in0.0 mm
12:20 PM 77.3°F25.2°C 53.0°F11.7°C 43% 13.8 mph SW22.2 kmh SW 26.5 mph42.6 kmh 29.91 in1012.9 mb - 0.00 in0.0 mm 0.00 in0.0 mm
12:30 PM 77.8°F25.4°C 53.5°F11.9°C 43% 12.7 mph WSW20.4 kmh WSW 16.1 mph25.9 kmh 29.91 in1012.9 mb - 0.00 in0.0 mm 0.00 in0.0 mm
12:40 PM 78.9°F26.1°C 54.5°F12.5°C 43% 11.5 mph SW18.5 kmh SW 16.1 mph25.9 kmh 29.90 in1012.5 mb - 0.00 in0.0 mm 0.00 in0.0 mm
12:50 PM 79.4°F26.3°C 53.6°F12.0°C 41% 15.0 mph SSW24.1 kmh SSW 19.6 mph31.5 kmh 29.91 in1012.9 mb - 0.00 in0.0 mm 0.00 in0.0 mm
01:00 PM 79.2°F26.2°C 53.5°F11.9°C 41% 13.8 mph SW22.2 kmh SW 18.4 mph29.6 kmh 29.90 in1012.5 mb - 0.00 in0.0 mm 0.00 in0.0 mm
01:10 PM 78.9°F26.1°C 52.5°F11.4°C 40% 9.2 mph SW14.8 kmh SW 11.5 mph18.5 kmh 29.90 in1012.5 mb - 0.00 in0.0 mm 0.00 in0.0 mm
01:20 PM 79.7°F26.5°C 53.9°F12.2°C 41% 16.1 mph WSW25.9 kmh WSW 24.2 mph38.9 kmh 29.90 in1012.5 mb - 0.00 in0.0 mm 0.00 in0.0 mm
01:30 PM 79.5°F26.4°C 51.7°F10.9°C 38% 12.7 mph SW20.4 kmh SW 18.4 mph29.6 kmh 29.89 in1012.2 mb - 0.00 in0.0 mm 0.00 in0.0 mm
01:40 PM 79.8°F26.6°C 53.4°F11.9°C 40% 10.4 mph SW16.7 kmh SW 18.4 mph29.6 kmh 29.89 in1012.2 mb - 0.00 in0.0 mm 0.00 in0.0 mm
01:50 PM 80.2°F26.8°C 53.0°F11.7°C 39% 9.2 mph SW14.8 kmh SW 12.7 mph20.4 kmh 29.89 in1012.2 mb - 0.00 in0.0 mm 0.00 in0.0 mm
02:00 PM 80.3°F26.8°C 53.8°F12.1°C 40% 11.5 mph SW18.5 kmh SW 28.8 mph46.3 kmh 29.89 in1012.2 mb - 0.00 in0.0 mm 0.00 in0.0 mm
02:10 PM 80.8°F27.1°C 56.9°F13.8°C 44% 8.1 mph SW13.0 kmh SW 11.5 mph18.5 kmh 29.88 in1011.9 mb - 0.00 in0.0 mm 0.00 in0.0 mm
02:20 PM 81.3°F27.4°C 54.0°F12.2°C 39% 12.7 mph SW20.4 kmh SW 19.6 mph31.5 kmh 29.88 in1011.9 mb - 0.00 in0.0 mm 0.00 in0.0 mm
02:30 PM 80.8°F27.1°C 54.3°F12.4°C 40% 13.8 mph WSW22.2 kmh WSW 23.0 mph37.0 kmh 29.88 in1011.9 mb - 0.00 in0.0 mm 0.00 in0.0 mm
02:40 PM 81.2°F27.3°C 52.4°F11.3°C 37% 15.0 mph SSW24.1 kmh SSW 28.8 mph46.3 kmh 29.88 in1011.9 mb - 0.00 in0.0 mm 0.00 in0.0 mm
02:50 PM 80.5°F26.9°C 53.2°F11.8°C 39% 17.3 mph SW27.8 kmh SW 27.6 mph44.4 kmh 29.88 in1011.9 mb - 0.00 in0.0 mm 0.00 in0.0 mm
03:00 PM 80.8°F27.1°C 54.9°F12.7°C 41% 17.3 mph SW27.8 kmh SW 19.6 mph31.5 kmh 29.88 in1011.9 mb - 0.00 in0.0 mm 0.00 in0.0 mm
03:10 PM 78.8°F26.0°C 53.7°F12.1°C 42% 16.1 mph SW25.9 kmh SW 23.0 mph37.0 kmh 29.87 in1011.5 mb - 0.00 in0.0 mm 0.00 in0.0 mm
03:20 PM 78.0°F25.6°C 53.0°F11.7°C 42% 15.0 mph SW24.1 kmh SW 23.0 mph37.0 kmh 29.87 in1011.5 mb - 0.00 in0.0 mm 0.00 in0.0 mm
03:30 PM 78.4°F25.8°C 54.1°F12.3°C 43% 12.7 mph SW20.4 kmh SW 19.6 mph31.5 kmh 29.87 in1011.5 mb - 0.00 in0.0 mm 0.00 in0.0 mm
03:40 PM 78.9°F26.1°C 53.8°F12.1°C 42% 18.4 mph SW29.6 kmh SW 25.3 mph40.7 kmh 29.87 in1011.5 mb - 0.00 in0.0 mm 0.00 in0.0 mm
03:50 PM 77.8°F25.4°C 54.7°F12.6°C 45% 15.0 mph SW24.1 kmh SW 19.6 mph31.5 kmh 29.87 in1011.5 mb - 0.00 in0.0 mm 0.00 in0.0 mm
04:00 PM 77.5°F25.3°C 54.5°F12.5°C 45% 10.4 mph SW16.7 kmh SW 13.8 mph22.2 kmh 29.88 in1011.9 mb - 0.00 in0.0 mm 0.00 in0.0 mm
04:10 PM 77.5°F25.3°C 55.1°F12.8°C 46% 6.9 mph SW11.1 kmh SW 11.5 mph18.5 kmh 29.88 in1011.9 mb - 0.00 in0.0 mm 0.00 in0.0 mm
04:20 PM 77.8°F25.4°C 55.3°F12.9°C 46% 12.7 mph SSW20.4 kmh SSW 17.3 mph27.8 kmh 29.89 in1012.2 mb - 0.00 in0.0 mm 0.00 in0.0 mm
04:30 PM 77.8°F25.4°C 56.0°F13.3°C 47% 12.7 mph SW20.4 kmh SW 20.7 mph33.3 kmh 29.89 in1012.2 mb - 0.00 in0.0 mm 0.00 in0.0 mm
04:40 PM 77.5°F25.3°C 55.7°F13.2°C 47% 11.5 mph SW18.5 kmh SW 17.3 mph27.8 kmh 29.89 in1012.2 mb - 0.00 in0.0 mm 0.00 in0.0 mm
04:50 PM 76.3°F24.6°C 55.7°F13.2°C 49% 9.2 mph SW14.8 kmh SW 15.0 mph24.1 kmh 29.89 in1012.2 mb - 0.00 in0.0 mm 0.00 in0.0 mm
05:00 PM 76.3°F24.6°C 55.7°F13.2°C 49% 10.4 mph SW16.7 kmh SW 16.1 mph25.9 kmh 29.89 in1012.2 mb - 0.00 in0.0 mm 0.00 in0.0 mm
05:10 PM 76.0°F24.4°C 56.0°F13.3°C 50% 9.2 mph SW14.8 kmh SW 18.4 mph29.6 kmh 29.89 in1012.2 mb - 0.00 in0.0 mm 0.00 in0.0 mm
05:20 PM 75.5°F24.2°C 56.1°F13.4°C 51% 10.4 mph SW16.7 kmh SW 12.7 mph20.4 kmh 29.89 in1012.2 mb - 0.00 in0.0 mm 0.00 in0.0 mm
05:30 PM 74.8°F23.8°C 57.0°F13.9°C 54% 9.2 mph SW14.8 kmh SW 15.0 mph24.1 kmh 29.89 in1012.2 mb - 0.00 in0.0 mm 0.00 in0.0 mm
05:40 PM 74.1°F23.4°C 56.9°F13.8°C 55% 6.9 mph SW11.1 kmh SW 9.2 mph14.8 kmh 29.89 in1012.2 mb - 0.00 in0.0 mm 0.00 in0.0 mm
05:50 PM 73.7°F23.2°C 57.0°F13.9°C 56% 8.1 mph SW13.0 kmh SW 13.8 mph22.2 kmh 29.89 in1012.2 mb - 0.00 in0.0 mm 0.00 in0.0 mm
06:00 PM 73.4°F23.0°C 57.2°F14.0°C 57% 4.6 mph SW7.4 kmh SW 5.8 mph9.3 kmh 29.90 in1012.5 mb - 0.00 in0.0 mm 0.00 in0.0 mm
06:10 PM 72.8°F22.7°C 57.2°F14.0°C 58% 2.3 mph WSW3.7 kmh WSW 3.5 mph5.6 kmh 29.90 in1012.5 mb - 0.00 in0.0 mm 0.00 in0.0 mm
06:20 PM 72.5°F22.5°C 57.4°F14.1°C 59% 2.3 mph SW3.7 kmh SW 3.5 mph5.6 kmh 29.89 in1012.2 mb - 0.00 in0.0 mm 0.00 in0.0 mm
06:30 PM 72.4°F22.4°C 57.3°F14.1°C 59% 4.6 mph SSW7.4 kmh SSW 6.9 mph11.1 kmh 29.90 in1012.5 mb - 0.00 in0.0 mm 0.00 in0.0 mm
06:40 PM 72.3°F22.4°C 57.2°F14.0°C 59% 6.9 mph SSW11.1 kmh SSW 15.0 mph24.1 kmh 29.90 in1012.5 mb - 0.00 in0.0 mm 0.00 in0.0 mm
06:50 PM 72.1°F22.3°C 57.4°F14.1°C 60% 9.2 mph SSW14.8 kmh SSW 10.4 mph16.7 kmh 29.90 in1012.5 mb - 0.00 in0.0 mm 0.00 in0.0 mm
07:00 PM 71.8°F22.1°C 57.6°F14.2°C 61% 6.9 mph SW11.1 kmh SW 12.7 mph20.4 kmh 29.91 in1012.9 mb - 0.00 in0.0 mm 0.00 in0.0 mm
07:10 PM 70.2°F21.2°C 59.6°F15.3°C 69% 5.8 mph WNW9.3 kmh WNW 9.2 mph14.8 kmh 29.93 in1013.5 mb - 0.02 in0.5 mm 0.02 in0.5 mm
07:20 PM 66.0°F18.9°C 59.3°F15.2°C 79% 3.5 mph NW5.6 kmh NW 4.6 mph7.4 kmh 29.93 in1013.5 mb - 0.01 in0.3 mm 0.02 in0.5 mm
07:30 PM 63.1°F17.3°C 58.6°F14.8°C 85% 2.3 mph NNW3.7 kmh NNW 3.5 mph5.6 kmh 29.92 in1013.2 mb - 0.00 in0.0 mm 0.02 in0.5 mm
07:40 PM 61.9°F16.6°C 58.3°F14.6°C 88% Calm Calm -- 29.93 in1013.5 mb - 0.00 in0.0 mm 0.02 in0.5 mm
07:50 PM 61.1°F16.2°C 58.2°F14.6°C 90% Calm Calm -- 29.93 in1013.5 mb - 0.00 in0.0 mm 0.02 in0.5 mm
08:00 PM 60.7°F15.9°C 58.3°F14.6°C 92% 1.2 mph SE1.9 kmh SE 2.3 mph3.7 kmh 29.93 in1013.5 mb - 0.00 in0.0 mm 0.02 in0.5 mm
08:10 PM 60.4°F15.8°C 58.1°F14.5°C 92% Calm Calm -- 29.93 in1013.5 mb - 0.00 in0.0 mm 0.02 in0.5 mm
08:20 PM 60.3°F15.7°C 58.3°F14.6°C 93% Calm Calm -- 29.94 in1013.9 mb - 0.00 in0.0 mm 0.02 in0.5 mm
08:30 PM 60.2°F15.7°C 57.9°F14.4°C 92% 1.2 mph ENE1.9 kmh ENE 3.5 mph5.6 kmh 29.95 in1014.2 mb - 0.00 in0.0 mm 0.02 in0.5 mm
08:40 PM 59.0°F15.0°C 52.5°F11.4°C 79% 11.5 mph ENE18.5 kmh ENE 12.7 mph20.4 kmh 29.97 in1014.9 mb - 0.00 in0.0 mm 0.02 in0.5 mm
08:50 PM 55.3°F12.9°C 48.2°F9.0°C 77% 10.4 mph ENE16.7 kmh ENE 15.0 mph24.1 kmh 29.97 in1014.9 mb - 0.00 in0.0 mm 0.02 in0.5 mm
09:00 PM 52.8°F11.6°C 46.5°F8.1°C 79% 11.5 mph ENE18.5 kmh ENE 15.0 mph24.1 kmh 29.97 in1014.9 mb - 0.00 in0.0 mm 0.02 in0.5 mm
09:10 PM 51.6°F10.9°C 45.3°F7.4°C 79% 6.9 mph E11.1 kmh E 9.2 mph14.8 kmh 29.98 in1015.2 mb - 0.00 in0.0 mm 0.02 in0.5 mm
09:20 PM 50.9°F10.5°C 45.3°F7.4°C 81% 13.8 mph ENE22.2 kmh ENE 17.3 mph27.8 kmh 29.98 in1015.2 mb - 0.00 in0.0 mm 0.02 in0.5 mm
09:30 PM 50.5°F10.3°C 45.2°F7.3°C 82% 11.5 mph E18.5 kmh E 13.8 mph22.2 kmh 29.99 in1015.6 mb - 0.00 in0.0 mm 0.02 in0.5 mm
09:40 PM 50.3°F10.2°C 45.0°F7.2°C 82% 12.7 mph E20.4 kmh E 15.0 mph24.1 kmh 29.98 in1015.2 mb - 0.00 in0.0 mm 0.02 in0.5 mm
09:50 PM 50.1°F10.1°C 44.8°F7.1°C 82% 8.1 mph ENE13.0 kmh ENE 11.5 mph18.5 kmh 30.00 in1015.9 mb - 0.00 in0.0 mm 0.02 in0.5 mm
10:00 PM 49.9°F9.9°C 44.6°F7.0°C 82% 6.9 mph NE11.1 kmh NE 10.4 mph16.7 kmh 29.99 in1015.6 mb - 0.00 in0.0 mm 0.02 in0.5 mm
10:10 PM 49.7°F9.8°C 44.1°F6.7°C 81% 8.1 mph NE13.0 kmh NE 10.4 mph16.7 kmh 30.00 in1015.9 mb - 0.00 in0.0 mm 0.02 in0.5 mm
10:20 PM 49.5°F9.7°C 44.2°F6.8°C 82% 4.6 mph NNE7.4 kmh NNE 4.6 mph7.4 kmh 30.00 in1015.9 mb - 0.00 in0.0 mm 0.02 in0.5 mm
10:30 PM 49.1°F9.5°C 43.8°F6.6°C 82% 8.1 mph NE13.0 kmh NE 10.4 mph16.7 kmh 30.01 in1016.3 mb - 0.00 in0.0 mm 0.02 in0.5 mm
10:40 PM 48.7°F9.3°C 43.8°F6.6°C 83% 6.9 mph NE11.1 kmh NE 11.5 mph18.5 kmh 30.00 in1015.9 mb - 0.00 in0.0 mm 0.02 in0.5 mm
10:50 PM 47.9°F8.8°C 43.3°F6.3°C 84% 6.9 mph NNE11.1 kmh NNE 11.5 mph18.5 kmh 30.01 in1016.3 mb - 0.00 in0.0 mm 0.02 in0.5 mm
11:00 PM 47.2°F8.4°C 42.6°F5.9°C 84% 5.8 mph NE9.3 kmh NE 11.5 mph18.5 kmh 30.01 in1016.3 mb - 0.00 in0.0 mm 0.02 in0.5 mm
11:10 PM 46.3°F7.9°C 41.8°F5.4°C 84% 9.2 mph NE14.8 kmh NE 11.5 mph18.5 kmh 30.00 in1015.9 mb - 0.00 in0.0 mm 0.02 in0.5 mm
11:20 PM 45.4°F7.4°C 41.1°F5.1°C 85% 9.2 mph ENE14.8 kmh ENE 11.5 mph18.5 kmh 30.01 in1016.3 mb - 0.00 in0.0 mm 0.02 in0.5 mm
11:30 PM 44.8°F7.1°C 40.9°F4.9°C 86% 6.9 mph NE11.1 kmh NE 11.5 mph18.5 kmh 30.01 in1016.3 mb - 0.00 in0.0 mm 0.02 in0.5 mm
11:40 PM 44.6°F7.0°C 40.7°F4.8°C 86% 5.8 mph NE9.3 kmh NE 6.9 mph11.1 kmh 30.02 in1016.6 mb - 0.00 in0.0 mm 0.02 in0.5 mm
11:50 PM 44.5°F6.9°C 40.6°F4.8°C 86% 10.4 mph ENE16.7 kmh ENE 13.8 mph22.2 kmh 30.00 in1015.9 mb - 0.00 in0.0 mm 0.02 in0.5 mm